createdAt,value
2023-05-07T00:00:31.286Z,100275.91
2023-05-07T00:02:59.772Z,100275.22
2023-05-07T00:05:28.285Z,100271.31
2023-05-07T00:07:58.421Z,100272.88
2023-05-07T00:10:28.740Z,100273.88
2023-05-07T00:12:57.124Z,100275.38
2023-05-07T00:15:25.556Z,100267.16
2023-05-07T00:17:55.639Z,100275.75
2023-05-07T00:20:24.092Z,100265.75
2023-05-07T00:22:52.436Z,100271.31
2023-05-07T00:25:21.547Z,100270.72
2023-05-07T00:27:49.916Z,100272.66
2023-05-07T00:30:18.512Z,100266.88
2023-05-07T00:32:47.140Z,100271.69
2023-05-07T00:35:16.997Z,100264.97
2023-05-07T00:37:45.657Z,100266.38
2023-05-07T00:40:14.290Z,100268.06
2023-05-07T00:42:42.658Z,100265.25
2023-05-07T00:45:11.873Z,100266.56
2023-05-07T00:47:40.439Z,100270.28
2023-05-07T00:50:12.008Z,100265.09
2023-05-07T00:52:43.271Z,100265.25
2023-05-07T00:55:12.293Z,100255.25
2023-05-07T00:57:43.330Z,100251.09
2023-05-07T01:00:14.140Z,100265.22
2023-05-07T01:02:43.437Z,100255.09
2023-05-07T01:05:15.201Z,100249.91
2023-05-07T01:07:45.720Z,100268.19
2023-05-07T01:10:14.743Z,100261.03
2023-05-07T01:12:44.235Z,100258.38
2023-05-07T01:15:13.059Z,100257.97
2023-05-07T01:17:43.777Z,100250.44
2023-05-07T01:20:25.535Z,100251.63
2023-05-07T01:22:58.838Z,100249.91
2023-05-07T01:25:27.866Z,100244.91
2023-05-07T01:28:00.973Z,100249.72
2023-05-07T01:30:33.080Z,100246.44
2023-05-07T01:33:07.216Z,100251.66
2023-05-07T01:35:41.448Z,100249.66
2023-05-07T01:38:11.613Z,100251.03
2023-05-07T01:40:40.157Z,100255.94
2023-05-07T01:43:09.331Z,100255.19
2023-05-07T01:45:38.909Z,100248.53
2023-05-07T01:48:11.581Z,100252.50
2023-05-07T01:50:40.593Z,100248.00
2023-05-07T01:53:10.667Z,100240.38
2023-05-07T01:55:39.092Z,100247.13
2023-05-07T01:58:07.790Z,100242.69
2023-05-07T02:00:36.340Z,100241.50
2023-05-07T02:03:05.665Z,100248.50
2023-05-07T02:05:47.577Z,100244.75
2023-05-07T02:08:24.796Z,100246.16
2023-05-07T02:10:54.965Z,100246.34
2023-05-07T02:13:25.428Z,100246.88
2023-05-07T02:15:54.739Z,100253.47
2023-05-07T02:18:24.027Z,100254.88
2023-05-07T02:20:52.526Z,100257.00
2023-05-07T02:23:21.039Z,100252.28
2023-05-07T02:25:50.956Z,100259.47
2023-05-07T02:28:19.552Z,100252.66
2023-05-07T02:31:01.890Z,100250.59
2023-05-07T02:33:31.702Z,100254.66
2023-05-07T02:36:09.066Z,100258.81
2023-05-07T02:38:39.884Z,100270.63
2023-05-07T02:41:09.672Z,100253.19
2023-05-07T02:43:39.132Z,100255.19
2023-05-07T02:46:10.337Z,100254.00
2023-05-07T02:48:42.708Z,100257.53
2023-05-07T02:51:11.067Z,100262.56
2023-05-07T02:53:41.815Z,100255.69
2023-05-07T02:56:11.730Z,100259.16
2023-05-07T02:58:41.050Z,100260.47
2023-05-07T03:01:10.901Z,100252.94
2023-05-07T03:04:01.116Z,100249.44
2023-05-07T03:06:29.514Z,100249.59
2023-05-07T03:08:57.967Z,100253.22
2023-05-07T03:11:27.940Z,100258.75
2023-05-07T03:13:56.540Z,100259.41
2023-05-07T03:16:25.211Z,100252.81
2023-05-07T03:18:53.687Z,100251.38
2023-05-07T03:21:22.138Z,100240.56
2023-05-07T03:23:50.582Z,100247.75
2023-05-07T03:26:18.924Z,100239.47
2023-05-07T03:28:48.966Z,100244.94
2023-05-07T03:31:19.132Z,100257.88
2023-05-07T03:33:57.033Z,100256.91
2023-05-07T03:36:27.715Z,100250.56
2023-05-07T03:38:57.272Z,100250.63
2023-05-07T03:41:28.612Z,100240.16
2023-05-07T03:43:58.507Z,100246.34
2023-05-07T03:46:27.476Z,100238.69
2023-05-07T03:48:56.786Z,100234.19
2023-05-07T03:51:25.606Z,100238.34
2023-05-07T03:53:54.791Z,100235.72
2023-05-07T03:56:27.572Z,100234.63
2023-05-07T03:58:58.734Z,100244.50
2023-05-07T04:01:27.603Z,100239.63
2023-05-07T04:03:56.629Z,100235.34
2023-05-07T04:06:26.428Z,100240.94
2023-05-07T04:08:55.328Z,100235.03
2023-05-07T04:11:23.805Z,100244.19
2023-05-07T04:13:52.191Z,100243.00
2023-05-07T04:16:25.180Z,100249.06
2023-05-07T04:18:53.610Z,100261.75
2023-05-07T04:21:23.568Z,100257.84
2023-05-07T04:23:53.264Z,100262.09
2023-05-07T04:26:22.454Z,100257.25
2023-05-07T04:28:51.045Z,100267.28
2023-05-07T04:31:20.135Z,100269.69
2023-05-07T04:33:54.042Z,100274.75
2023-05-07T04:36:22.584Z,100288.47
2023-05-07T04:38:57.666Z,100287.63
2023-05-07T04:41:26.234Z,100284.38
2023-05-07T04:43:54.763Z,100285.25
2023-05-07T04:46:26.140Z,100288.16
2023-05-07T04:48:57.741Z,100296.31
2023-05-07T04:51:26.443Z,100293.00
2023-05-07T04:53:55.445Z,100294.25
2023-05-07T04:56:23.924Z,100296.75
2023-05-07T04:58:52.848Z,100298.81
2023-05-07T05:01:23.176Z,100300.25
2023-05-07T05:03:51.791Z,100291.31
2023-05-07T05:06:23.264Z,100283.53
2023-05-07T05:08:52.746Z,100297.00
2023-05-07T05:11:21.925Z,100296.19
2023-05-07T05:13:50.898Z,100299.25
2023-05-07T05:16:22.425Z,100297.97
2023-05-07T05:18:52.623Z,100309.38
2023-05-07T05:21:23.326Z,100312.81
2023-05-07T05:23:55.305Z,100310.50
2023-05-07T05:26:26.878Z,100310.25
2023-05-07T05:28:55.648Z,100317.13
2023-05-07T05:31:26.427Z,100323.94
2023-05-07T05:33:54.940Z,100323.09
2023-05-07T05:36:25.026Z,100323.69
2023-05-07T05:38:56.568Z,100322.00
2023-05-07T05:41:25.063Z,100323.44
2023-05-07T05:43:53.682Z,100319.75
2023-05-07T05:46:22.342Z,100324.06
2023-05-07T05:48:52.889Z,100320.59
2023-05-07T05:51:24.529Z,100322.25
2023-05-07T05:53:52.929Z,100325.91
2023-05-07T05:56:22.274Z,100329.63
2023-05-07T05:58:50.860Z,100324.09
2023-05-07T06:01:20.140Z,100326.91
2023-05-07T06:03:50.604Z,100322.94
2023-05-07T06:06:19.429Z,100321.09
2023-05-07T06:08:49.778Z,100320.34
2023-05-07T06:11:23.412Z,100323.47
2023-05-07T06:13:52.194Z,100328.69
2023-05-07T06:16:20.732Z,100331.38
2023-05-07T06:18:50.284Z,100331.06
2023-05-07T06:21:18.836Z,100333.50
2023-05-07T06:23:47.246Z,100331.50
2023-05-07T06:26:17.470Z,100332.88
2023-05-07T06:28:48.724Z,100332.72
2023-05-07T06:31:21.566Z,100325.75
2023-05-07T06:34:01.118Z,100332.94
2023-05-07T06:36:35.038Z,100335.69
2023-05-07T06:39:08.428Z,100337.16
2023-05-07T06:41:39.899Z,100342.78
2023-05-07T06:44:17.496Z,100334.56
2023-05-07T06:46:49.809Z,100352.50
2023-05-07T06:49:18.431Z,100344.50
2023-05-07T06:51:47.278Z,100347.91
2023-05-07T06:54:15.717Z,100344.63
2023-05-07T06:56:47.050Z,100353.88
2023-05-07T06:59:15.750Z,100341.00
2023-05-07T07:01:44.317Z,100345.88
2023-05-07T07:04:13.900Z,100343.91
2023-05-07T07:06:44.417Z,100344.00
2023-05-07T07:09:15.166Z,100343.91
2023-05-07T07:11:44.082Z,100346.09
2023-05-07T07:14:14.137Z,100344.53
2023-05-07T07:16:47.922Z,100351.28
2023-05-07T07:19:17.929Z,100347.25
2023-05-07T07:21:48.818Z,100342.00
2023-05-07T07:24:22.031Z,100342.47
2023-05-07T07:26:53.932Z,100349.78
2023-05-07T07:29:27.612Z,100349.09
2023-05-07T07:31:56.448Z,100344.91
2023-05-07T07:34:25.434Z,100358.88
2023-05-07T07:36:53.967Z,100361.09
2023-05-07T07:39:22.683Z,100351.44
2023-05-07T07:41:54.834Z,100361.50
2023-05-07T07:44:25.464Z,100341.75
2023-05-07T07:46:59.866Z,100356.97
2023-05-07T07:49:29.542Z,100335.38
2023-05-07T07:52:01.022Z,100341.69
2023-05-07T07:54:31.363Z,100326.94
2023-05-07T07:57:00.684Z,100350.59
2023-05-07T07:59:31.151Z,100353.63
2023-05-07T08:01:59.719Z,100359.66
2023-05-07T08:04:31.498Z,100364.44
2023-05-07T08:07:03.248Z,100362.72
2023-05-07T08:09:33.865Z,100359.19
2023-05-07T08:12:04.467Z,100362.91
2023-05-07T08:14:37.530Z,100359.78
2023-05-07T08:17:07.662Z,100350.38
2023-05-07T08:19:36.870Z,100338.44
2023-05-07T08:22:06.669Z,100354.84
2023-05-07T08:24:36.041Z,100361.63
2023-05-07T08:27:04.606Z,100361.75
2023-05-07T08:29:33.119Z,100352.66
2023-05-07T08:32:04.198Z,100340.03
2023-05-07T08:34:32.717Z,100352.91
2023-05-07T08:37:04.559Z,100353.38
2023-05-07T08:39:34.104Z,100350.38
2023-05-07T08:42:05.007Z,100356.88
2023-05-07T08:44:36.998Z,100357.44
2023-05-07T08:47:09.525Z,100358.50
2023-05-07T08:49:39.485Z,100358.50
2023-05-07T08:52:10.282Z,100351.06
2023-05-07T08:54:40.540Z,100365.34
2023-05-07T08:57:11.107Z,100344.47
2023-05-07T08:59:39.576Z,100349.00
2023-05-07T09:02:11.596Z,100354.78
2023-05-07T09:04:41.056Z,100344.91
2023-05-07T09:07:10.250Z,100344.44
2023-05-07T09:09:43.154Z,100362.38
2023-05-07T09:12:11.657Z,100356.53
2023-05-07T09:14:40.924Z,100355.25
2023-05-07T09:17:10.817Z,100354.91
2023-05-07T09:19:39.662Z,100352.16
2023-05-07T09:22:09.969Z,100353.84
2023-05-07T09:24:52.130Z,100359.31
2023-05-07T09:27:24.504Z,100352.59
2023-05-07T09:29:52.917Z,100350.81
2023-05-07T09:32:23.197Z,100354.09
2023-05-07T09:34:51.659Z,100355.38
2023-05-07T09:37:24.293Z,100348.09
2023-05-07T09:39:52.815Z,100349.72
2023-05-07T09:42:27.605Z,100348.06
2023-05-07T09:44:58.905Z,100350.97
2023-05-07T09:47:35.021Z,100349.81
2023-05-07T09:50:08.220Z,100351.16
2023-05-07T09:52:37.680Z,100348.16
2023-05-07T09:55:09.790Z,100344.41
2023-05-07T09:57:40.158Z,100345.13
2023-05-07T10:00:12.045Z,100341.16
2023-05-07T10:02:53.175Z,100345.75
2023-05-07T10:05:29.748Z,100341.31
2023-05-07T10:08:02.116Z,100348.66
2023-05-07T10:10:35.207Z,100344.31
2023-05-07T10:13:06.935Z,100331.84
2023-05-07T10:15:37.409Z,100338.84
2023-05-07T10:18:09.905Z,100333.72
2023-05-07T10:20:41.212Z,100326.78
2023-05-07T10:23:17.346Z,100332.63
2023-05-07T10:25:49.891Z,100340.31
2023-05-07T10:28:26.297Z,100330.38
2023-05-07T10:31:10.335Z,100330.78
2023-05-07T10:33:47.589Z,100320.47
2023-05-07T10:36:17.465Z,100325.00
2023-05-07T10:38:47.258Z,100305.34
2023-05-07T10:41:17.588Z,100332.91
2023-05-07T10:43:48.026Z,100321.91
2023-05-07T10:46:25.433Z,100332.41
2023-05-07T10:49:13.410Z,100324.09
2023-05-07T10:52:19.570Z,100325.44
2023-05-07T10:55:26.570Z,100314.94
2023-05-07T10:58:32.029Z,100315.66
2023-05-07T11:01:53.179Z,100315.66
2023-05-07T11:04:28.987Z,100312.31
2023-05-07T11:07:30.574Z,100303.13
2023-05-07T11:10:06.892Z,100299.78
2023-05-07T11:12:58.698Z,100310.25
2023-05-07T11:15:44.369Z,100319.75
2023-05-07T11:18:50.146Z,100312.69
2023-05-07T11:21:41.039Z,100313.47
2023-05-07T11:24:29.760Z,100313.03
2023-05-07T11:27:06.230Z,100311.44
2023-05-07T11:29:35.133Z,100307.13
2023-05-07T11:32:10.866Z,100304.97
2023-05-07T11:34:46.823Z,100304.47
2023-05-07T11:37:19.651Z,100299.91
2023-05-07T11:40:06.699Z,100299.88
2023-05-07T11:42:38.451Z,100297.47
2023-05-07T11:45:09.215Z,100300.69
2023-05-07T11:47:37.994Z,100289.09
2023-05-07T11:50:11.652Z,100292.31
2023-05-07T11:52:41.520Z,100290.97
2023-05-07T11:55:11.107Z,100288.03
2023-05-07T11:57:40.253Z,100274.56
2023-05-07T12:00:10.803Z,100280.44
2023-05-07T12:02:43.176Z,100282.34
2023-05-07T12:05:12.069Z,100280.72
2023-05-07T12:07:42.055Z,100281.78
2023-05-07T12:10:13.839Z,100275.03
2023-05-07T12:12:42.946Z,100275.34
2023-05-07T12:15:12.542Z,100280.19
2023-05-07T12:17:41.473Z,100280.69
2023-05-07T12:20:12.292Z,100279.38
2023-05-07T12:22:42.667Z,100275.88
2023-05-07T12:25:11.773Z,100272.91
2023-05-07T12:27:42.773Z,100271.31
2023-05-07T12:30:14.594Z,100271.56
2023-05-07T12:32:42.974Z,100282.38
2023-05-07T12:35:11.716Z,100266.47
2023-05-07T12:37:41.668Z,100269.69
2023-05-07T12:40:13.280Z,100257.56
2023-05-07T12:42:43.418Z,100266.75
2023-05-07T12:45:13.052Z,100265.09
2023-05-07T12:47:41.930Z,100266.75
2023-05-07T12:50:10.856Z,100265.38
2023-05-07T12:52:41.499Z,100262.44
2023-05-07T12:55:11.984Z,100258.66
2023-05-07T12:57:41.814Z,100259.19
2023-05-07T13:00:11.824Z,100259.72
2023-05-07T13:02:41.840Z,100248.91
2023-05-07T13:05:11.053Z,100257.56
2023-05-07T13:07:42.711Z,100256.50
2023-05-07T13:10:11.867Z,100265.38
2023-05-07T13:12:40.315Z,100251.91
2023-05-07T13:15:10.449Z,100246.53
2023-05-07T13:17:39.080Z,100250.03
2023-05-07T13:20:09.443Z,100252.19
2023-05-07T13:22:38.058Z,100246.53
2023-05-07T13:25:09.916Z,100247.59
2023-05-07T13:27:38.489Z,100244.38
2023-05-07T13:30:08.615Z,100242.75
2023-05-07T13:32:37.283Z,100241.13
2023-05-07T13:35:06.675Z,100244.38
2023-05-07T13:37:35.759Z,100239.53
2023-05-07T13:40:05.858Z,100230.91
2023-05-07T13:42:35.715Z,100225.53
2023-05-07T13:45:05.100Z,100229.84
2023-05-07T13:47:33.472Z,100233.31
2023-05-07T13:50:01.988Z,100225.28
2023-05-07T13:52:30.518Z,100235.25
2023-05-07T13:54:59.818Z,100236.59
2023-05-07T13:57:28.240Z,100233.88
2023-05-07T13:59:58.115Z,100228.47
2023-05-07T14:02:26.653Z,100229.00
2023-05-07T14:04:55.731Z,100223.63
2023-05-07T14:07:24.172Z,100221.47
2023-05-07T14:09:52.588Z,100219.31
2023-05-07T14:12:20.950Z,100215.81
2023-05-07T14:14:50.897Z,100218.53
2023-05-07T14:17:21.246Z,100218.22
2023-05-07T14:19:49.633Z,100222.00
2023-05-07T14:22:17.958Z,100213.94
2023-05-07T14:24:48.575Z,100218.25
2023-05-07T14:27:21.538Z,100214.72
2023-05-07T14:29:52.040Z,100210.97
2023-05-07T14:32:22.205Z,100213.13
2023-05-07T14:34:51.423Z,100212.59
2023-05-07T14:37:20.962Z,100216.09
2023-05-07T14:39:50.188Z,100210.44
2023-05-07T14:42:19.307Z,100211.25
2023-05-07T14:44:49.446Z,100217.44
2023-05-07T14:47:19.768Z,100211.53
2023-05-07T14:49:49.861Z,100202.63
2023-05-07T14:52:18.204Z,100215.81
2023-05-07T14:54:46.561Z,100215.53
2023-05-07T14:57:17.290Z,100223.63
2023-05-07T14:59:45.873Z,100219.84
2023-05-07T15:02:15.178Z,100219.81
2023-05-07T15:04:46.920Z,100230.34
2023-05-07T15:07:17.437Z,100226.84
2023-05-07T15:09:46.448Z,100233.28
2023-05-07T15:12:15.566Z,100241.09
2023-05-07T15:14:43.926Z,100234.91
2023-05-07T15:17:13.691Z,100238.13
2023-05-07T15:19:42.091Z,100245.13
2023-05-07T15:22:10.512Z,100245.13
2023-05-07T15:24:40.451Z,100244.00
2023-05-07T15:27:08.869Z,100252.31
2023-05-07T15:29:37.223Z,100249.34
2023-05-07T15:32:06.469Z,100244.78
2023-05-07T15:34:35.020Z,100252.59
2023-05-07T15:37:03.598Z,100255.81
2023-05-07T15:39:32.750Z,100252.25
2023-05-07T15:42:03.757Z,100251.97
2023-05-07T15:44:34.783Z,100257.34
2023-05-07T15:47:04.216Z,100264.88
2023-05-07T15:49:32.509Z,100253.56
2023-05-07T15:52:00.919Z,100264.31
2023-05-07T15:54:29.262Z,100258.41
2023-05-07T15:56:57.662Z,100257.84
2023-05-07T15:59:28.041Z,100250.84
2023-05-07T16:01:56.508Z,100247.06
2023-05-07T16:04:24.859Z,100253.19
2023-05-07T16:06:53.629Z,100258.34
2023-05-07T16:09:22.238Z,100258.34
2023-05-07T16:11:50.740Z,100257.81
2023-05-07T16:14:19.097Z,100255.44
2023-05-07T16:16:48.958Z,100256.72
2023-05-07T16:19:17.429Z,100255.09
2023-05-07T16:21:45.779Z,100246.44
2023-05-07T16:24:14.243Z,100260.38
2023-05-07T16:26:42.605Z,100252.31
2023-05-07T16:29:11.188Z,100254.16
2023-05-07T16:31:39.623Z,100262.03
2023-05-07T16:34:09.477Z,100242.59
2023-05-07T16:36:37.992Z,100249.28
2023-05-07T16:39:06.844Z,100256.53
2023-05-07T16:41:35.234Z,100264.38
2023-05-07T16:44:03.965Z,100256.00
2023-05-07T16:46:33.084Z,100271.06
2023-05-07T16:49:01.416Z,100274.22
2023-05-07T16:51:31.072Z,100267.81
2023-05-07T16:53:59.416Z,100269.91
2023-05-07T16:56:27.981Z,100277.16
2023-05-07T16:58:57.355Z,100280.59
2023-05-07T17:01:25.816Z,100277.09
2023-05-07T17:03:54.431Z,100270.91
2023-05-07T17:06:22.890Z,100287.03
2023-05-07T17:08:52.700Z,100313.63
2023-05-07T17:11:21.445Z,100333.06
2023-05-07T17:13:50.449Z,100336.22
2023-05-07T17:16:18.801Z,100338.72
2023-05-07T17:18:47.158Z,100335.94
2023-05-07T17:21:15.493Z,100353.72
2023-05-07T17:23:43.868Z,100350.81
2023-05-07T17:26:17.814Z,100362.91
2023-05-07T17:28:46.287Z,100364.16
2023-05-07T17:31:14.716Z,100371.94
2023-05-07T17:33:43.115Z,100371.72
2023-05-07T17:36:11.448Z,100400.22
2023-05-07T17:38:39.825Z,100399.41
2023-05-07T17:41:08.147Z,100408.13
2023-05-07T17:43:37.902Z,100402.78
2023-05-07T17:46:06.405Z,100415.53
2023-05-07T17:48:34.920Z,100429.13
2023-05-07T17:51:03.894Z,100431.00
2023-05-07T17:53:32.612Z,100440.53
2023-05-07T17:56:00.997Z,100444.63
2023-05-07T17:58:29.551Z,100448.06
2023-05-07T18:00:59.605Z,100443.72
2023-05-07T18:03:29.342Z,100464.84
2023-05-07T18:05:57.835Z,100466.00
2023-05-07T18:08:26.232Z,100463.19
2023-05-07T18:10:54.819Z,100453.78
2023-05-07T18:13:23.619Z,100465.19
2023-05-07T18:15:52.094Z,100464.13
2023-05-07T18:18:21.907Z,100466.53
2023-05-07T18:20:53.407Z,100481.53
2023-05-07T18:23:21.855Z,100484.56
2023-05-07T18:25:50.334Z,100476.88
2023-05-07T18:28:18.794Z,100477.59
2023-05-07T18:30:47.266Z,100480.84
2023-05-07T18:33:15.773Z,100486.63
2023-05-07T18:35:45.551Z,100490.53
2023-05-07T18:38:14.047Z,100491.44
2023-05-07T18:40:44.090Z,100486.66
2023-05-07T18:43:12.737Z,100485.06
2023-05-07T18:45:41.228Z,100491.63
2023-05-07T18:48:09.740Z,100491.22
2023-05-07T18:50:38.098Z,100485.03
2023-05-07T18:53:07.821Z,100494.56
2023-05-07T18:55:36.268Z,100492.44
2023-05-07T18:58:05.223Z,100486.75
2023-05-07T19:00:33.721Z,100473.53
2023-05-07T19:03:02.270Z,100488.38
2023-05-07T19:05:30.926Z,100490.50
2023-05-07T19:07:59.819Z,100487.81
2023-05-07T19:10:29.747Z,100499.63
2023-05-07T19:12:58.307Z,100506.19
2023-05-07T19:15:27.143Z,100507.13
2023-05-07T19:17:55.853Z,100499.47
2023-05-07T19:20:24.297Z,100503.59
2023-05-07T19:22:52.972Z,100517.28
2023-05-07T19:25:21.831Z,100519.94
2023-05-07T19:27:51.903Z,100521.41
2023-05-07T19:30:20.373Z,100528.19
2023-05-07T19:32:48.887Z,100531.31
2023-05-07T19:35:19.306Z,100528.47
2023-05-07T19:37:47.824Z,100533.34
2023-05-07T19:40:16.253Z,100536.22
2023-05-07T19:42:44.689Z,100537.63
2023-05-07T19:45:16.322Z,100541.22
2023-05-07T19:47:44.775Z,100543.66
2023-05-07T19:50:13.560Z,100550.41
2023-05-07T19:52:41.962Z,100555.16
2023-05-07T19:55:10.999Z,100549.88
2023-05-07T19:57:39.552Z,100549.38
2023-05-07T20:00:09.895Z,100549.91
2023-05-07T20:02:46.604Z,100564.13
2023-05-07T20:05:15.384Z,100566.75
2023-05-07T20:07:46.143Z,100576.59
2023-05-07T20:10:14.979Z,100575.63
2023-05-07T20:12:43.599Z,100574.91
2023-05-07T20:15:13.065Z,100582.25
2023-05-07T20:17:41.599Z,100587.34
2023-05-07T20:20:13.400Z,100577.56
2023-05-07T20:22:42.240Z,100588.53
2023-05-07T20:25:13.532Z,100589.03
2023-05-07T20:27:41.997Z,100589.94
2023-05-07T20:30:11.911Z,100592.09
2023-05-07T20:32:40.772Z,100590.69
2023-05-07T20:35:11.527Z,100597.88
2023-05-07T20:37:40.922Z,100600.91
2023-05-07T20:40:11.196Z,100599.53
2023-05-07T20:42:39.853Z,100606.22
2023-05-07T20:45:10.301Z,100608.19
2023-05-07T20:47:38.750Z,100617.22
2023-05-07T20:50:08.376Z,100615.28
2023-05-07T20:52:38.519Z,100616.16
2023-05-07T20:55:08.973Z,100627.06
2023-05-07T20:57:37.797Z,100621.94
2023-05-07T21:00:08.227Z,100623.69
2023-05-07T21:02:36.747Z,100628.44
2023-05-07T21:05:05.791Z,100625.34
2023-05-07T21:07:34.288Z,100627.44
2023-05-07T21:10:04.676Z,100633.38
2023-05-07T21:12:33.194Z,100626.47
2023-05-07T21:15:01.687Z,100634.16
2023-05-07T21:17:31.817Z,100632.97
2023-05-07T21:20:00.309Z,100638.88
2023-05-07T21:22:28.725Z,100634.34
2023-05-07T21:24:57.274Z,100634.28
2023-05-07T21:27:27.410Z,100635.06
2023-05-07T21:29:58.700Z,100632.66
2023-05-07T21:32:27.095Z,100636.22
2023-05-07T21:34:55.561Z,100647.09
2023-05-07T21:37:24.056Z,100629.28
2023-05-07T21:39:52.510Z,100636.69
2023-05-07T21:42:22.933Z,100634.56
2023-05-07T21:44:53.056Z,100643.28
2023-05-07T21:47:21.475Z,100646.44
2023-05-07T21:49:49.940Z,100630.91
2023-05-07T21:52:18.863Z,100637.25
2023-05-07T21:54:47.252Z,100646.28
2023-05-07T21:57:15.874Z,100640.72
2023-05-07T21:59:44.266Z,100638.75
2023-05-07T22:02:14.099Z,100634.72
2023-05-07T22:04:43.411Z,100640.50
2023-05-07T22:07:11.805Z,100637.41
2023-05-07T22:09:40.300Z,100638.84
2023-05-07T22:12:08.944Z,100636.19
2023-05-07T22:14:37.518Z,100643.34
2023-05-07T22:17:05.877Z,100649.75
2023-05-07T22:19:35.727Z,100656.53
2023-05-07T22:22:04.210Z,100653.66
2023-05-07T22:24:32.695Z,100660.41
2023-05-07T22:27:01.118Z,100661.44
2023-05-07T22:29:29.507Z,100662.69
2023-05-07T22:31:58.044Z,100656.84
2023-05-07T22:34:26.497Z,100676.94
2023-05-07T22:36:56.395Z,100668.75
2023-05-07T22:39:24.852Z,100663.81
2023-05-07T22:41:53.219Z,100678.56
2023-05-07T22:44:21.616Z,100675.25
2023-05-07T22:46:50.141Z,100673.25
2023-05-07T22:49:18.565Z,100668.97
2023-05-07T22:51:47.336Z,100677.56
2023-05-07T22:54:17.119Z,100675.69
2023-05-07T22:56:45.633Z,100684.91
2023-05-07T22:59:14.434Z,100680.63
2023-05-07T23:01:43.510Z,100674.91
2023-05-07T23:04:11.940Z,100673.91
2023-05-07T23:06:41.607Z,100678.19
2023-05-07T23:09:10.849Z,100670.63
2023-05-07T23:11:41.099Z,100664.88
2023-05-07T23:14:10.065Z,100666.09
2023-05-07T23:16:38.592Z,100669.78
2023-05-07T23:19:06.955Z,100664.28
2023-05-07T23:21:35.333Z,100652.63
2023-05-07T23:24:03.673Z,100648.34
2023-05-07T23:26:32.106Z,100647.75
2023-05-07T23:29:02.023Z,100648.34
2023-05-07T23:31:30.629Z,100663.09
2023-05-07T23:33:59.320Z,100657.75
2023-05-07T23:36:28.555Z,100652.06
2023-05-07T23:38:56.938Z,100658.59
2023-05-07T23:41:25.492Z,100654.50
2023-05-07T23:43:53.897Z,100648.97
2023-05-07T23:46:24.775Z,100648.13
2023-05-07T23:48:53.200Z,100657.16
2023-05-07T23:51:21.556Z,100642.63
2023-05-07T23:53:50.412Z,100645.09
2023-05-07T23:56:18.916Z,100649.97
2023-05-07T23:58:47.430Z,100652.44
